sensor_id;sensor_type;location;lat;lon;timestamp;temperature;humidity
21340;DHT22;10828;47.064;15.422;2023-08-08T00:02:22;13.80;99.90
21340;DHT22;10828;47.064;15.422;2023-08-08T00:04:49;13.70;99.90
21340;DHT22;10828;47.064;15.422;2023-08-08T00:07:15;13.60;99.90
21340;DHT22;10828;47.064;15.422;2023-08-08T00:09:40;13.50;99.90
21340;DHT22;10828;47.064;15.422;2023-08-08T00:12:06;13.40;99.90
21340;DHT22;10828;47.064;15.422;2023-08-08T00:14:32;13.50;99.90
21340;DHT22;10828;47.064;15.422;2023-08-08T00:16:57;13.50;99.90
21340;DHT22;10828;47.064;15.422;2023-08-08T00:19:23;13.50;99.90
21340;DHT22;10828;47.064;15.422;2023-08-08T00:21:48;13.50;99.90
21340;DHT22;10828;47.064;15.422;2023-08-08T00:24:14;13.60;99.90
21340;DHT22;10828;47.064;15.422;2023-08-08T00:26:39;13.60;99.90
21340;DHT22;10828;47.064;15.422;2023-08-08T00:29:05;13.60;99.90
21340;DHT22;10828;47.064;15.422;2023-08-08T00:31:31;13.50;99.90
21340;DHT22;10828;47.064;15.422;2023-08-08T00:33:57;13.50;99.90
21340;DHT22;10828;47.064;15.422;2023-08-08T00:36:22;13.50;99.90
21340;DHT22;10828;47.064;15.422;2023-08-08T00:38:48;13.70;99.90
21340;DHT22;10828;47.064;15.422;2023-08-08T00:41:14;13.80;99.90
21340;DHT22;10828;47.064;15.422;2023-08-08T00:43:40;13.80;99.90
21340;DHT22;10828;47.064;15.422;2023-08-08T00:46:05;13.60;99.90
21340;DHT22;10828;47.064;15.422;2023-08-08T00:48:32;13.50;99.90
21340;DHT22;10828;47.064;15.422;2023-08-08T00:50:57;13.50;99.90
21340;DHT22;10828;47.064;15.422;2023-08-08T00:53:23;13.40;99.90
21340;DHT22;10828;47.064;15.422;2023-08-08T00:55:51;13.30;99.90
21340;DHT22;10828;47.064;15.422;2023-08-08T00:58:17;13.30;99.90
21340;DHT22;10828;47.064;15.422;2023-08-08T01:00:43;13.30;99.90
21340;DHT22;10828;47.064;15.422;2023-08-08T01:03:09;13.20;99.90
21340;DHT22;10828;47.064;15.422;2023-08-08T01:05:38;13.20;99.90
21340;DHT22;10828;47.064;15.422;2023-08-08T01:08:07;13.10;99.90
21340;DHT22;10828;47.064;15.422;2023-08-08T01:10:36;13.00;99.90
21340;DHT22;10828;47.064;15.422;2023-08-08T01:13:23;13.00;99.90
21340;DHT22;10828;47.064;15.422;2023-08-08T01:15:50;13.00;99.90
21340;DHT22;10828;47.064;15.422;2023-08-08T01:18:16;13.10;99.90
21340;DHT22;10828;47.064;15.422;2023-08-08T01:20:43;13.00;99.90
21340;DHT22;10828;47.064;15.422;2023-08-08T01:23:28;12.90;99.90
21340;DHT22;10828;47.064;15.422;2023-08-08T01:25:57;12.80;99.90
21340;DHT22;10828;47.064;15.422;2023-08-08T01:28:23;12.90;99.90
21340;DHT22;10828;47.064;15.422;2023-08-08T01:30:49;12.80;99.90
21340;DHT22;10828;47.064;15.422;2023-08-08T01:33:15;12.80;99.90
21340;DHT22;10828;47.064;15.422;2023-08-08T01:35:45;12.90;99.90
21340;DHT22;10828;47.064;15.422;2023-08-08T01:38:20;12.80;99.90
21340;DHT22;10828;47.064;15.422;2023-08-08T01:40:46;12.70;99.90
21340;DHT22;10828;47.064;15.422;2023-08-08T01:43:14;12.70;99.90
21340;DHT22;10828;47.064;15.422;2023-08-08T01:45:40;12.70;99.90
21340;DHT22;10828;47.064;15.422;2023-08-08T01:48:11;12.70;99.90
21340;DHT22;10828;47.064;15.422;2023-08-08T01:50:38;12.60;99.90
21340;DHT22;10828;47.064;15.422;2023-08-08T01:53:04;12.60;99.90
21340;DHT22;10828;47.064;15.422;2023-08-08T01:55:30;12.60;99.90
21340;DHT22;10828;47.064;15.422;2023-08-08T01:57:56;12.50;99.90
21340;DHT22;10828;47.064;15.422;2023-08-08T02:00:22;12.60;99.90
21340;DHT22;10828;47.064;15.422;2023-08-08T02:02:47;12.50;99.90
21340;DHT22;10828;47.064;15.422;2023-08-08T02:05:13;12.40;99.90
21340;DHT22;10828;47.064;15.422;2023-08-08T02:07:39;12.40;99.90
21340;DHT22;10828;47.064;15.422;2023-08-08T02:10:04;12.40;99.90
21340;DHT22;10828;47.064;15.422;2023-08-08T02:12:30;12.40;99.90
21340;DHT22;10828;47.064;15.422;2023-08-08T02:14:57;12.40;99.90
21340;DHT22;10828;47.064;15.422;2023-08-08T02:17:23;12.40;99.90
21340;DHT22;10828;47.064;15.422;2023-08-08T02:19:48;12.30;99.90
21340;DHT22;10828;47.064;15.422;2023-08-08T02:22:14;12.20;99.90
21340;DHT22;10828;47.064;15.422;2023-08-08T02:24:39;12.30;99.90
21340;DHT22;10828;47.064;15.422;2023-08-08T02:27:05;12.30;99.90
21340;DHT22;10828;47.064;15.422;2023-08-08T02:29:30;12.30;99.90
21340;DHT22;10828;47.064;15.422;2023-08-08T02:31:56;12.20;99.90
21340;DHT22;10828;47.064;15.422;2023-08-08T02:34:22;12.20;99.90
21340;DHT22;10828;47.064;15.422;2023-08-08T02:36:47;12.20;99.90
21340;DHT22;10828;47.064;15.422;2023-08-08T02:39:13;12.20;99.90
21340;DHT22;10828;47.064;15.422;2023-08-08T02:41:39;12.20;99.90
21340;DHT22;10828;47.064;15.422;2023-08-08T02:44:04;12.20;99.90
21340;DHT22;10828;47.064;15.422;2023-08-08T02:46:30;12.30;99.90
21340;DHT22;10828;47.064;15.422;2023-08-08T02:48:55;12.20;99.90
21340;DHT22;10828;47.064;15.422;2023-08-08T02:51:21;12.20;99.90
21340;DHT22;10828;47.064;15.422;2023-08-08T02:53:47;12.10;99.90
21340;DHT22;10828;47.064;15.422;2023-08-08T02:56:12;12.00;99.90
21340;DHT22;10828;47.064;15.422;2023-08-08T02:58:38;12.00;99.90
21340;DHT22;10828;47.064;15.422;2023-08-08T03:01:03;12.00;99.90
21340;DHT22;10828;47.064;15.422;2023-08-08T03:03:31;12.00;99.90
21340;DHT22;10828;47.064;15.422;2023-08-08T03:05:56;11.90;99.90
21340;DHT22;10828;47.064;15.422;2023-08-08T03:08:22;11.90;99.90
21340;DHT22;10828;47.064;15.422;2023-08-08T03:10:47;11.80;99.90
21340;DHT22;10828;47.064;15.422;2023-08-08T03:13:13;11.80;99.90
21340;DHT22;10828;47.064;15.422;2023-08-08T03:15:39;11.80;99.90
21340;DHT22;10828;47.064;15.422;2023-08-08T03:18:04;11.80;99.90
21340;DHT22;10828;47.064;15.422;2023-08-08T03:20:30;11.90;99.90
21340;DHT22;10828;47.064;15.422;2023-08-08T03:22:56;11.90;99.90
21340;DHT22;10828;47.064;15.422;2023-08-08T03:25:21;11.90;99.90
21340;DHT22;10828;47.064;15.422;2023-08-08T03:27:47;11.80;99.90
21340;DHT22;10828;47.064;15.422;2023-08-08T03:30:14;11.80;99.90
21340;DHT22;10828;47.064;15.422;2023-08-08T03:32:40;11.80;99.90
21340;DHT22;10828;47.064;15.422;2023-08-08T03:35:06;11.80;99.90
21340;DHT22;10828;47.064;15.422;2023-08-08T03:37:31;11.90;99.90
21340;DHT22;10828;47.064;15.422;2023-08-08T03:39:57;11.90;99.90
21340;DHT22;10828;47.064;15.422;2023-08-08T03:42:22;11.90;99.90
21340;DHT22;10828;47.064;15.422;2023-08-08T03:44:48;11.90;99.90
21340;DHT22;10828;47.064;15.422;2023-08-08T03:47:13;11.90;99.90
21340;DHT22;10828;47.064;15.422;2023-08-08T03:49:39;11.90;99.90
21340;DHT22;10828;47.064;15.422;2023-08-08T03:52:05;11.90;99.90
21340;DHT22;10828;47.064;15.422;2023-08-08T03:54:31;12.00;99.90
21340;DHT22;10828;47.064;15.422;2023-08-08T03:56:56;11.90;99.90
21340;DHT22;10828;47.064;15.422;2023-08-08T03:59:22;11.90;99.90
21340;DHT22;10828;47.064;15.422;2023-08-08T04:01:47;11.90;99.90
21340;DHT22;10828;47.064;15.422;2023-08-08T04:04:14;11.90;99.90
21340;DHT22;10828;47.064;15.422;2023-08-08T04:06:40;11.80;99.90
21340;DHT22;10828;47.064;15.422;2023-08-08T04:09:05;11.70;99.90
21340;DHT22;10828;47.064;15.422;2023-08-08T04:11:33;11.60;99.90
21340;DHT22;10828;47.064;15.422;2023-08-08T04:14:01;11.60;99.90
21340;DHT22;10828;47.064;15.422;2023-08-08T04:16:26;11.60;99.90
21340;DHT22;10828;47.064;15.422;2023-08-08T04:18:52;11.50;99.90
21340;DHT22;10828;47.064;15.422;2023-08-08T04:21:18;11.60;99.90
21340;DHT22;10828;47.064;15.422;2023-08-08T04:23:43;11.60;99.90
21340;DHT22;10828;47.064;15.422;2023-08-08T04:26:09;11.60;99.90
21340;DHT22;10828;47.064;15.422;2023-08-08T04:28:34;11.60;99.90
21340;DHT22;10828;47.064;15.422;2023-08-08T04:31:00;11.70;99.90
21340;DHT22;10828;47.064;15.422;2023-08-08T04:33:25;11.70;99.90
21340;DHT22;10828;47.064;15.422;2023-08-08T04:35:51;11.60;99.90
21340;DHT22;10828;47.064;15.422;2023-08-08T04:38:17;11.60;99.90
21340;DHT22;10828;47.064;15.422;2023-08-08T04:40:43;11.60;99.90
21340;DHT22;10828;47.064;15.422;2023-08-08T04:43:08;11.60;99.90
21340;DHT22;10828;47.064;15.422;2023-08-08T04:45:34;11.60;99.90
21340;DHT22;10828;47.064;15.422;2023-08-08T04:47:59;11.60;99.90
21340;DHT22;10828;47.064;15.422;2023-08-08T04:50:25;11.60;99.90
21340;DHT22;10828;47.064;15.422;2023-08-08T04:52:51;11.70;99.90
21340;DHT22;10828;47.064;15.422;2023-08-08T04:55:16;11.70;99.90
21340;DHT22;10828;47.064;15.422;2023-08-08T04:57:42;11.80;99.90
21340;DHT22;10828;47.064;15.422;2023-08-08T05:00:08;11.90;99.90
21340;DHT22;10828;47.064;15.422;2023-08-08T05:02:35;12.00;99.90
21340;DHT22;10828;47.064;15.422;2023-08-08T05:05:01;12.00;99.90
21340;DHT22;10828;47.064;15.422;2023-08-08T05:07:28;12.00;99.90
21340;DHT22;10828;47.064;15.422;2023-08-08T05:09:53;12.00;99.90
21340;DHT22;10828;47.064;15.422;2023-08-08T05:12:19;12.10;99.90
21340;DHT22;10828;47.064;15.422;2023-08-08T05:14:45;12.10;99.90
21340;DHT22;10828;47.064;15.422;2023-08-08T05:17:10;12.20;99.90
21340;DHT22;10828;47.064;15.422;2023-08-08T05:19:36;12.30;99.90
21340;DHT22;10828;47.064;15.422;2023-08-08T05:22:01;12.40;99.90
21340;DHT22;10828;47.064;15.422;2023-08-08T05:24:27;12.30;99.90
21340;DHT22;10828;47.064;15.422;2023-08-08T05:26:53;12.40;99.90
21340;DHT22;10828;47.064;15.422;2023-08-08T05:29:19;12.50;99.90
21340;DHT22;10828;47.064;15.422;2023-08-08T05:31:45;12.50;99.90
21340;DHT22;10828;47.064;15.422;2023-08-08T05:34:11;12.50;99.90
21340;DHT22;10828;47.064;15.422;2023-08-08T05:36:37;12.50;99.90
21340;DHT22;10828;47.064;15.422;2023-08-08T05:39:02;12.60;99.90
21340;DHT22;10828;47.064;15.422;2023-08-08T05:41:28;12.70;99.90
21340;DHT22;10828;47.064;15.422;2023-08-08T05:43:54;12.70;99.90
21340;DHT22;10828;47.064;15.422;2023-08-08T05:46:19;12.80;99.90
21340;DHT22;10828;47.064;15.422;2023-08-08T05:48:45;12.90;99.90
21340;DHT22;10828;47.064;15.422;2023-08-08T05:51:12;13.00;99.90
21340;DHT22;10828;47.064;15.422;2023-08-08T05:53:37;13.20;99.90
21340;DHT22;10828;47.064;15.422;2023-08-08T05:56:04;13.30;99.90
21340;DHT22;10828;47.064;15.422;2023-08-08T05:58:29;13.40;99.90
21340;DHT22;10828;47.064;15.422;2023-08-08T06:00:55;13.50;99.90
21340;DHT22;10828;47.064;15.422;2023-08-08T06:03:20;13.60;99.90
21340;DHT22;10828;47.064;15.422;2023-08-08T06:05:46;13.70;99.90
21340;DHT22;10828;47.064;15.422;2023-08-08T06:08:12;13.80;99.90
21340;DHT22;10828;47.064;15.422;2023-08-08T06:10:39;13.80;99.90
21340;DHT22;10828;47.064;15.422;2023-08-08T06:13:04;13.90;99.90
21340;DHT22;10828;47.064;15.422;2023-08-08T06:15:30;14.00;99.90
21340;DHT22;10828;47.064;15.422;2023-08-08T06:17:56;14.10;99.90
21340;DHT22;10828;47.064;15.422;2023-08-08T06:20:21;14.20;99.90
21340;DHT22;10828;47.064;15.422;2023-08-08T06:22:48;14.30;99.90
21340;DHT22;10828;47.064;15.422;2023-08-08T06:25:13;14.30;99.90
21340;DHT22;10828;47.064;15.422;2023-08-08T06:27:39;14.40;99.90
21340;DHT22;10828;47.064;15.422;2023-08-08T06:30:05;14.40;99.90
21340;DHT22;10828;47.064;15.422;2023-08-08T06:32:31;14.50;99.90
21340;DHT22;10828;47.064;15.422;2023-08-08T06:34:57;14.60;99.90
21340;DHT22;10828;47.064;15.422;2023-08-08T06:37:22;14.70;99.90
21340;DHT22;10828;47.064;15.422;2023-08-08T06:39:48;14.70;99.90
21340;DHT22;10828;47.064;15.422;2023-08-08T06:42:13;14.80;99.90
21340;DHT22;10828;47.064;15.422;2023-08-08T06:44:43;14.80;99.90
21340;DHT22;10828;47.064;15.422;2023-08-08T06:47:09;14.90;99.90
21340;DHT22;10828;47.064;15.422;2023-08-08T06:49:35;15.00;99.90
21340;DHT22;10828;47.064;15.422;2023-08-08T06:52:00;15.00;99.90
21340;DHT22;10828;47.064;15.422;2023-08-08T06:54:26;15.10;99.90
21340;DHT22;10828;47.064;15.422;2023-08-08T06:56:53;15.20;99.90
21340;DHT22;10828;47.064;15.422;2023-08-08T06:59:21;15.30;99.90
21340;DHT22;10828;47.064;15.422;2023-08-08T07:01:48;15.30;99.90
21340;DHT22;10828;47.064;15.422;2023-08-08T07:04:14;15.40;99.90
21340;DHT22;10828;47.064;15.422;2023-08-08T07:06:39;15.50;99.90
21340;DHT22;10828;47.064;15.422;2023-08-08T07:09:05;15.50;99.90
21340;DHT22;10828;47.064;15.422;2023-08-08T07:11:31;15.60;99.90
21340;DHT22;10828;47.064;15.422;2023-08-08T07:13:57;15.70;99.90
21340;DHT22;10828;47.064;15.422;2023-08-08T07:16:22;15.70;99.90
21340;DHT22;10828;47.064;15.422;2023-08-08T07:18:48;15.80;99.90
21340;DHT22;10828;47.064;15.422;2023-08-08T07:21:13;15.80;99.90
21340;DHT22;10828;47.064;15.422;2023-08-08T07:23:40;15.80;99.90
21340;DHT22;10828;47.064;15.422;2023-08-08T07:26:05;15.90;99.90
21340;DHT22;10828;47.064;15.422;2023-08-08T07:28:31;16.00;99.90
21340;DHT22;10828;47.064;15.422;2023-08-08T07:30:58;16.00;99.90
21340;DHT22;10828;47.064;15.422;2023-08-08T07:33:23;16.10;99.90
21340;DHT22;10828;47.064;15.422;2023-08-08T07:35:49;16.10;99.90
21340;DHT22;10828;47.064;15.422;2023-08-08T07:38:14;16.20;99.90
21340;DHT22;10828;47.064;15.422;2023-08-08T07:40:41;16.20;99.90
21340;DHT22;10828;47.064;15.422;2023-08-08T07:43:07;16.30;99.90
21340;DHT22;10828;47.064;15.422;2023-08-08T07:45:32;16.40;99.90
21340;DHT22;10828;47.064;15.422;2023-08-08T07:47:58;16.50;99.90
21340;DHT22;10828;47.064;15.422;2023-08-08T07:50:23;16.50;99.90
21340;DHT22;10828;47.064;15.422;2023-08-08T07:52:49;16.50;99.90
21340;DHT22;10828;47.064;15.422;2023-08-08T07:55:14;16.60;99.90
21340;DHT22;10828;47.064;15.422;2023-08-08T07:57:40;16.70;99.90
21340;DHT22;10828;47.064;15.422;2023-08-08T08:00:06;16.80;99.90
21340;DHT22;10828;47.064;15.422;2023-08-08T08:02:38;16.80;99.90
21340;DHT22;10828;47.064;15.422;2023-08-08T08:05:04;16.80;99.90
21340;DHT22;10828;47.064;15.422;2023-08-08T08:07:34;16.80;99.90
21340;DHT22;10828;47.064;15.422;2023-08-08T08:10:00;16.90;99.90
21340;DHT22;10828;47.064;15.422;2023-08-08T08:12:26;16.90;99.90
21340;DHT22;10828;47.064;15.422;2023-08-08T08:14:51;17.00;99.90
21340;DHT22;10828;47.064;15.422;2023-08-08T08:17:17;17.10;99.90
21340;DHT22;10828;47.064;15.422;2023-08-08T08:19:43;17.20;99.90
21340;DHT22;10828;47.064;15.422;2023-08-08T08:22:08;17.30;99.90
21340;DHT22;10828;47.064;15.422;2023-08-08T08:24:34;17.40;99.90
21340;DHT22;10828;47.064;15.422;2023-08-08T08:27:00;17.30;99.90
21340;DHT22;10828;47.064;15.422;2023-08-08T08:29:25;17.40;99.90
21340;DHT22;10828;47.064;15.422;2023-08-08T08:31:51;17.50;99.90
21340;DHT22;10828;47.064;15.422;2023-08-08T08:34:16;17.60;99.90
21340;DHT22;10828;47.064;15.422;2023-08-08T08:36:42;17.60;99.90
21340;DHT22;10828;47.064;15.422;2023-08-08T08:39:07;17.70;99.90
21340;DHT22;10828;47.064;15.422;2023-08-08T08:41:35;17.70;99.90
21340;DHT22;10828;47.064;15.422;2023-08-08T08:44:01;17.70;99.90
21340;DHT22;10828;47.064;15.422;2023-08-08T08:46:28;17.80;99.90
21340;DHT22;10828;47.064;15.422;2023-08-08T08:48:54;17.90;99.90
21340;DHT22;10828;47.064;15.422;2023-08-08T08:51:21;17.90;99.90
21340;DHT22;10828;47.064;15.422;2023-08-08T08:53:47;17.90;99.90
21340;DHT22;10828;47.064;15.422;2023-08-08T08:56:16;18.00;99.90
21340;DHT22;10828;47.064;15.422;2023-08-08T08:58:42;18.00;99.90
21340;DHT22;10828;47.064;15.422;2023-08-08T09:01:09;18.10;99.90
21340;DHT22;10828;47.064;15.422;2023-08-08T09:03:35;18.20;99.90
21340;DHT22;10828;47.064;15.422;2023-08-08T09:06:02;18.40;99.90
21340;DHT22;10828;47.064;15.422;2023-08-08T09:08:28;18.40;99.90
21340;DHT22;10828;47.064;15.422;2023-08-08T09:10:55;18.40;99.90
21340;DHT22;10828;47.064;15.422;2023-08-08T09:13:21;18.40;99.90
21340;DHT22;10828;47.064;15.422;2023-08-08T09:15:48;18.40;99.90
21340;DHT22;10828;47.064;15.422;2023-08-08T09:18:14;18.50;99.90
21340;DHT22;10828;47.064;15.422;2023-08-08T09:20:40;18.70;99.90
21340;DHT22;10828;47.064;15.422;2023-08-08T09:23:05;19.10;99.90
21340;DHT22;10828;47.064;15.422;2023-08-08T09:25:31;19.40;99.90
21340;DHT22;10828;47.064;15.422;2023-08-08T09:27:58;19.60;99.90
21340;DHT22;10828;47.064;15.422;2023-08-08T09:30:23;19.60;99.90
21340;DHT22;10828;47.064;15.422;2023-08-08T09:32:49;19.60;99.90
21340;DHT22;10828;47.064;15.422;2023-08-08T09:35:15;19.50;99.90
21340;DHT22;10828;47.064;15.422;2023-08-08T09:37:41;19.50;99.90
21340;DHT22;10828;47.064;15.422;2023-08-08T09:40:07;19.60;99.90
21340;DHT22;10828;47.064;15.422;2023-08-08T09:42:35;19.80;99.90
21340;DHT22;10828;47.064;15.422;2023-08-08T09:45:01;20.00;99.90
21340;DHT22;10828;47.064;15.422;2023-08-08T09:47:27;20.40;99.90
21340;DHT22;10828;47.064;15.422;2023-08-08T09:50:03;20.70;99.90
21340;DHT22;10828;47.064;15.422;2023-08-08T09:52:34;20.70;99.90
21340;DHT22;10828;47.064;15.422;2023-08-08T09:55:00;20.80;99.90
21340;DHT22;10828;47.064;15.422;2023-08-08T09:57:27;21.00;99.90
21340;DHT22;10828;47.064;15.422;2023-08-08T09:59:53;21.20;99.90
21340;DHT22;10828;47.064;15.422;2023-08-08T10:02:19;21.30;99.90
21340;DHT22;10828;47.064;15.422;2023-08-08T10:04:45;21.20;99.90
21340;DHT22;10828;47.064;15.422;2023-08-08T10:07:11;21.00;99.90
21340;DHT22;10828;47.064;15.422;2023-08-08T10:09:37;20.90;99.90
21340;DHT22;10828;47.064;15.422;2023-08-08T10:12:04;20.80;99.90
21340;DHT22;10828;47.064;15.422;2023-08-08T10:14:31;20.70;99.90
21340;DHT22;10828;47.064;15.422;2023-08-08T10:16:57;20.70;99.90
21340;DHT22;10828;47.064;15.422;2023-08-08T10:19:24;20.70;99.90
21340;DHT22;10828;47.064;15.422;2023-08-08T10:21:57;20.60;99.90
21340;DHT22;10828;47.064;15.422;2023-08-08T10:24:23;20.40;99.90
21340;DHT22;10828;47.064;15.422;2023-08-08T10:26:59;20.40;99.90
21340;DHT22;10828;47.064;15.422;2023-08-08T10:29:29;20.60;99.90
21340;DHT22;10828;47.064;15.422;2023-08-08T10:32:04;20.70;99.90
21340;DHT22;10828;47.064;15.422;2023-08-08T10:34:41;21.00;99.90
21340;DHT22;10828;47.064;15.422;2023-08-08T10:37:14;21.20;99.90
21340;DHT22;10828;47.064;15.422;2023-08-08T10:39:54;21.40;99.90
21340;DHT22;10828;47.064;15.422;2023-08-08T10:42:22;21.40;99.90
21340;DHT22;10828;47.064;15.422;2023-08-08T10:44:56;21.50;99.90
21340;DHT22;10828;47.064;15.422;2023-08-08T10:47:24;21.70;99.90
21340;DHT22;10828;47.064;15.422;2023-08-08T10:52:33;21.90;99.90
21340;DHT22;10828;47.064;15.422;2023-08-08T10:55:01;21.80;99.90
21340;DHT22;10828;47.064;15.422;2023-08-08T10:57:28;21.80;99.90
21340;DHT22;10828;47.064;15.422;2023-08-08T10:59:53;22.00;99.90
21340;DHT22;10828;47.064;15.422;2023-08-08T11:02:20;22.10;99.90
21340;DHT22;10828;47.064;15.422;2023-08-08T11:04:46;22.10;99.90
21340;DHT22;10828;47.064;15.422;2023-08-08T11:07:12;22.30;99.90
21340;DHT22;10828;47.064;15.422;2023-08-08T11:09:39;22.30;99.90
21340;DHT22;10828;47.064;15.422;2023-08-08T11:12:05;22.60;99.90
21340;DHT22;10828;47.064;15.422;2023-08-08T11:14:30;22.60;99.90
21340;DHT22;10828;47.064;15.422;2023-08-08T11:16:56;22.80;99.90
21340;DHT22;10828;47.064;15.422;2023-08-08T11:19:21;23.20;99.90
21340;DHT22;10828;47.064;15.422;2023-08-08T11:21:48;23.30;99.90
21340;DHT22;10828;47.064;15.422;2023-08-08T11:24:14;22.90;99.90
21340;DHT22;10828;47.064;15.422;2023-08-08T11:26:42;22.60;99.90
21340;DHT22;10828;47.064;15.422;2023-08-08T11:29:09;22.40;99.90
21340;DHT22;10828;47.064;15.422;2023-08-08T11:31:35;22.30;99.90
21340;DHT22;10828;47.064;15.422;2023-08-08T11:34:01;22.30;99.90
21340;DHT22;10828;47.064;15.422;2023-08-08T11:36:30;22.30;99.90
21340;DHT22;10828;47.064;15.422;2023-08-08T11:38:57;22.40;99.90
21340;DHT22;10828;47.064;15.422;2023-08-08T11:41:23;22.50;99.90
21340;DHT22;10828;47.064;15.422;2023-08-08T11:43:50;22.70;99.90
21340;DHT22;10828;47.064;15.422;2023-08-08T11:46:17;22.70;99.90
21340;DHT22;10828;47.064;15.422;2023-08-08T11:48:43;22.70;99.90
21340;DHT22;10828;47.064;15.422;2023-08-08T11:51:09;22.90;99.90
21340;DHT22;10828;47.064;15.422;2023-08-08T11:53:35;22.60;99.90
21340;DHT22;10828;47.064;15.422;2023-08-08T11:56:04;22.60;99.90
21340;DHT22;10828;47.064;15.422;2023-08-08T11:58:30;22.80;99.90
21340;DHT22;10828;47.064;15.422;2023-08-08T12:00:56;23.00;99.90
21340;DHT22;10828;47.064;15.422;2023-08-08T12:03:25;23.00;99.90
21340;DHT22;10828;47.064;15.422;2023-08-08T12:05:51;22.70;99.90
21340;DHT22;10828;47.064;15.422;2023-08-08T12:08:20;22.70;99.90
21340;DHT22;10828;47.064;15.422;2023-08-08T12:10:52;22.90;99.90
21340;DHT22;10828;47.064;15.422;2023-08-08T12:13:24;23.20;99.90
21340;DHT22;10828;47.064;15.422;2023-08-08T12:15:52;23.30;99.90
21340;DHT22;10828;47.064;15.422;2023-08-08T12:18:19;23.10;99.90
21340;DHT22;10828;47.064;15.422;2023-08-08T12:20:45;23.20;99.90
21340;DHT22;10828;47.064;15.422;2023-08-08T12:23:11;23.30;99.90
21340;DHT22;10828;47.064;15.422;2023-08-08T12:25:38;23.50;99.90
21340;DHT22;10828;47.064;15.422;2023-08-08T12:28:04;23.60;99.90
21340;DHT22;10828;47.064;15.422;2023-08-08T12:30:30;23.50;99.90
21340;DHT22;10828;47.064;15.422;2023-08-08T12:32:56;23.70;99.90
21340;DHT22;10828;47.064;15.422;2023-08-08T12:35:22;23.70;99.90
21340;DHT22;10828;47.064;15.422;2023-08-08T12:37:48;23.80;99.90
21340;DHT22;10828;47.064;15.422;2023-08-08T12:40:13;23.50;99.90
21340;DHT22;10828;47.064;15.422;2023-08-08T12:42:39;23.50;99.90
21340;DHT22;10828;47.064;15.422;2023-08-08T12:45:06;23.50;99.90
21340;DHT22;10828;47.064;15.422;2023-08-08T12:47:32;23.60;99.90
21340;DHT22;10828;47.064;15.422;2023-08-08T12:49:57;23.80;99.90
21340;DHT22;10828;47.064;15.422;2023-08-08T12:52:23;24.10;99.90
21340;DHT22;10828;47.064;15.422;2023-08-08T12:54:49;24.30;99.90
21340;DHT22;10828;47.064;15.422;2023-08-08T12:57:14;24.40;99.90
21340;DHT22;10828;47.064;15.422;2023-08-08T12:59:40;24.20;99.90
21340;DHT22;10828;47.064;15.422;2023-08-08T13:02:06;23.80;99.90
21340;DHT22;10828;47.064;15.422;2023-08-08T13:04:32;23.90;99.90
21340;DHT22;10828;47.064;15.422;2023-08-08T13:06:57;23.80;99.90
21340;DHT22;10828;47.064;15.422;2023-08-08T13:09:23;23.60;99.90
21340;DHT22;10828;47.064;15.422;2023-08-08T13:11:48;23.90;99.90
21340;DHT22;10828;47.064;15.422;2023-08-08T13:14:14;23.80;99.90
21340;DHT22;10828;47.064;15.422;2023-08-08T13:16:40;23.70;99.90
21340;DHT22;10828;47.064;15.422;2023-08-08T13:19:05;23.70;99.90
21340;DHT22;10828;47.064;15.422;2023-08-08T13:21:31;23.50;99.90
21340;DHT22;10828;47.064;15.422;2023-08-08T13:23:57;23.60;99.90
21340;DHT22;10828;47.064;15.422;2023-08-08T13:26:23;23.70;99.90
21340;DHT22;10828;47.064;15.422;2023-08-08T13:28:49;23.60;99.90
21340;DHT22;10828;47.064;15.422;2023-08-08T13:31:15;23.60;99.90
21340;DHT22;10828;47.064;15.422;2023-08-08T13:33:41;23.60;99.90
21340;DHT22;10828;47.064;15.422;2023-08-08T13:36:07;23.70;99.90
21340;DHT22;10828;47.064;15.422;2023-08-08T13:38:32;23.90;99.90
21340;DHT22;10828;47.064;15.422;2023-08-08T13:40:58;23.90;99.90
21340;DHT22;10828;47.064;15.422;2023-08-08T13:43:26;23.70;99.90
21340;DHT22;10828;47.064;15.422;2023-08-08T13:45:52;23.80;99.90
21340;DHT22;10828;47.064;15.422;2023-08-08T13:48:17;24.00;99.90
21340;DHT22;10828;47.064;15.422;2023-08-08T13:50:43;24.20;99.90
21340;DHT22;10828;47.064;15.422;2023-08-08T13:53:09;24.10;99.90
21340;DHT22;10828;47.064;15.422;2023-08-08T13:55:34;24.00;99.90
21340;DHT22;10828;47.064;15.422;2023-08-08T13:58:06;24.10;99.90
21340;DHT22;10828;47.064;15.422;2023-08-08T14:00:31;24.10;99.90
21340;DHT22;10828;47.064;15.422;2023-08-08T14:02:57;24.30;99.90
21340;DHT22;10828;47.064;15.422;2023-08-08T14:05:24;24.40;99.90
21340;DHT22;10828;47.064;15.422;2023-08-08T14:07:49;24.40;99.90
21340;DHT22;10828;47.064;15.422;2023-08-08T14:10:15;24.40;99.90
21340;DHT22;10828;47.064;15.422;2023-08-08T14:12:41;24.30;99.90
21340;DHT22;10828;47.064;15.422;2023-08-08T14:15:07;24.40;99.90
21340;DHT22;10828;47.064;15.422;2023-08-08T14:17:34;24.40;99.90
21340;DHT22;10828;47.064;15.422;2023-08-08T14:20:00;24.20;99.90
21340;DHT22;10828;47.064;15.422;2023-08-08T14:22:25;24.00;99.90
21340;DHT22;10828;47.064;15.422;2023-08-08T14:24:51;23.70;99.90
21340;DHT22;10828;47.064;15.422;2023-08-08T14:27:17;23.60;99.90
21340;DHT22;10828;47.064;15.422;2023-08-08T14:29:42;23.50;99.90
21340;DHT22;10828;47.064;15.422;2023-08-08T14:32:08;23.50;99.90
21340;DHT22;10828;47.064;15.422;2023-08-08T14:34:34;23.40;99.90
21340;DHT22;10828;47.064;15.422;2023-08-08T14:37:02;23.40;99.90
21340;DHT22;10828;47.064;15.422;2023-08-08T14:39:28;23.50;99.90
21340;DHT22;10828;47.064;15.422;2023-08-08T14:41:55;23.70;99.90
21340;DHT22;10828;47.064;15.422;2023-08-08T14:44:21;23.50;99.90
21340;DHT22;10828;47.064;15.422;2023-08-08T14:46:47;23.30;99.90
21340;DHT22;10828;47.064;15.422;2023-08-08T14:49:13;23.30;99.90
21340;DHT22;10828;47.064;15.422;2023-08-08T14:51:39;23.40;99.90
21340;DHT22;10828;47.064;15.422;2023-08-08T14:54:04;23.30;99.90
21340;DHT22;10828;47.064;15.422;2023-08-08T14:56:30;23.30;99.90
21340;DHT22;10828;47.064;15.422;2023-08-08T14:58:55;23.30;99.90
21340;DHT22;10828;47.064;15.422;2023-08-08T15:01:22;23.40;99.90
21340;DHT22;10828;47.064;15.422;2023-08-08T15:03:49;23.40;99.90
21340;DHT22;10828;47.064;15.422;2023-08-08T15:06:14;23.30;99.90
21340;DHT22;10828;47.064;15.422;2023-08-08T15:08:41;23.30;99.90
21340;DHT22;10828;47.064;15.422;2023-08-08T15:11:07;23.20;99.90
21340;DHT22;10828;47.064;15.422;2023-08-08T15:13:32;23.20;99.90